sensor_id;sensor_type;location;lat;lon;timestamp;pressure;altitude;pressure_sealevel;temperature;humidity
4398;BME280;2213;49.720;7.296;2022-11-12T00:00:31;99760.69;;;5.75;100.00
4398;BME280;2213;49.720;7.296;2022-11-12T00:03:01;99754.06;;;5.71;100.00
4398;BME280;2213;49.720;7.296;2022-11-12T00:05:31;99758.41;;;5.70;100.00
4398;BME280;2213;49.720;7.296;2022-11-12T00:08:00;99753.09;;;5.61;100.00
4398;BME280;2213;49.720;7.296;2022-11-12T00:10:32;99745.31;;;5.61;100.00
4398;BME280;2213;49.720;7.296;2022-11-12T00:13:02;99747.91;;;5.61;100.00
4398;BME280;2213;49.720;7.296;2022-11-12T00:15:32;99748.72;;;5.61;100.00
4398;BME280;2213;49.720;7.296;2022-11-12T00:18:02;99753.09;;;5.61;100.00
4398;BME280;2213;49.720;7.296;2022-11-12T00:20:31;99749.06;;;5.56;100.00
4398;BME280;2213;49.720;7.296;2022-11-12T00:23:01;99753.56;;;5.54;100.00
4398;BME280;2213;49.720;7.296;2022-11-12T00:25:31;99748.38;;;5.54;100.00
4398;BME280;2213;49.720;7.296;2022-11-12T00:28:05;99751.19;;;5.51;100.00
4398;BME280;2213;49.720;7.296;2022-11-12T00:30:37;99741.75;;;5.50;100.00
4398;BME280;2213;49.720;7.296;2022-11-12T00:33:09;99742.91;;;5.46;100.00
4398;BME280;2213;49.720;7.296;2022-11-12T00:35:39;99742.63;;;5.38;100.00
4398;BME280;2213;49.720;7.296;2022-11-12T00:38:09;99746.78;;;5.41;100.00
4398;BME280;2213;49.720;7.296;2022-11-12T00:40:39;99741.00;;;5.37;100.00
4398;BME280;2213;49.720;7.296;2022-11-12T00:43:10;99747.09;;;5.36;100.00
4398;BME280;2213;49.720;7.296;2022-11-12T00:45:42;99756.78;;;5.34;100.00
4398;BME280;2213;49.720;7.296;2022-11-12T00:48:13;99749.00;;;5.34;100.00
4398;BME280;2213;49.720;7.296;2022-11-12T00:50:42;99757.09;;;5.30;100.00
4398;BME280;2213;49.720;7.296;2022-11-12T00:53:11;99748.81;;;5.25;100.00
4398;BME280;2213;49.720;7.296;2022-11-12T00:55:41;99759.31;;;5.23;100.00
4398;BME280;2213;49.720;7.296;2022-11-12T00:58:10;99759.41;;;5.22;100.00
4398;BME280;2213;49.720;7.296;2022-11-12T01:00:39;99764.50;;;5.23;100.00
4398;BME280;2213;49.720;7.296;2022-11-12T01:03:09;99768.03;;;5.22;100.00
4398;BME280;2213;49.720;7.296;2022-11-12T01:05:42;99774.03;;;5.23;100.00
4398;BME280;2213;49.720;7.296;2022-11-12T01:08:12;99775.09;;;5.20;100.00
4398;BME280;2213;49.720;7.296;2022-11-12T01:10:42;99775.31;;;5.17;100.00
4398;BME280;2213;49.720;7.296;2022-11-12T01:13:13;99773.66;;;5.16;100.00
4398;BME280;2213;49.720;7.296;2022-11-12T01:15:42;99765.16;;;5.14;100.00
4398;BME280;2213;49.720;7.296;2022-11-12T01:18:13;99768.69;;;5.13;100.00
4398;BME280;2213;49.720;7.296;2022-11-12T01:20:45;99767.88;;;5.13;100.00
4398;BME280;2213;49.720;7.296;2022-11-12T01:23:15;99771.38;;;5.12;100.00
4398;BME280;2213;49.720;7.296;2022-11-12T01:25:45;99767.75;;;5.14;100.00
4398;BME280;2213;49.720;7.296;2022-11-12T01:28:14;99759.25;;;5.12;100.00
4398;BME280;2213;49.720;7.296;2022-11-12T01:30:43;99761.03;;;5.12;100.00
4398;BME280;2213;49.720;7.296;2022-11-12T01:33:11;99756.66;;;5.12;100.00
4398;BME280;2213;49.720;7.296;2022-11-12T01:35:41;99757.44;;;5.01;100.00
4398;BME280;2213;49.720;7.296;2022-11-12T01:38:12;99757.34;;;5.03;100.00
4398;BME280;2213;49.720;7.296;2022-11-12T01:40:42;99755.50;;;4.92;100.00
4398;BME280;2213;49.720;7.296;2022-11-12T01:43:11;99759.41;;;4.98;100.00
4398;BME280;2213;49.720;7.296;2022-11-12T01:45:45;99760.03;;;5.01;100.00
4398;BME280;2213;49.720;7.296;2022-11-12T01:48:27;99765.22;;;5.01;100.00
4398;BME280;2213;49.720;7.296;2022-11-12T01:50:57;99761.69;;;5.02;100.00
4398;BME280;2213;49.720;7.296;2022-11-12T01:53:32;99763.31;;;5.03;100.00
4398;BME280;2213;49.720;7.296;2022-11-12T01:56:06;99758.59;;;4.97;100.00
4398;BME280;2213;49.720;7.296;2022-11-12T01:58:37;99764.00;;;4.94;100.00
4398;BME280;2213;49.720;7.296;2022-11-12T02:01:08;99767.50;;;4.93;100.00
4398;BME280;2213;49.720;7.296;2022-11-12T02:03:38;99766.34;;;4.97;100.00
4398;BME280;2213;49.720;7.296;2022-11-12T02:06:11;99763.06;;;4.95;100.00
4398;BME280;2213;49.720;7.296;2022-11-12T02:08:44;99764.44;;;4.88;100.00
4398;BME280;2213;49.720;7.296;2022-11-12T02:11:16;99758.19;;;4.91;100.00
4398;BME280;2213;49.720;7.296;2022-11-12T02:13:47;99755.13;;;4.86;100.00
4398;BME280;2213;49.720;7.296;2022-11-12T02:16:31;99750.75;;;4.86;100.00
4398;BME280;2213;49.720;7.296;2022-11-12T02:19:03;99759.84;;;4.92;100.00
4398;BME280;2213;49.720;7.296;2022-11-12T02:21:34;99753.94;;;4.90;100.00
4398;BME280;2213;49.720;7.296;2022-11-12T02:24:34;99752.53;;;4.86;100.00
4398;BME280;2213;49.720;7.296;2022-11-12T02:27:07;99752.84;;;4.81;100.00
4398;BME280;2213;49.720;7.296;2022-11-12T02:29:37;99742.47;;;4.81;100.00
4398;BME280;2213;49.720;7.296;2022-11-12T02:32:13;99747.28;;;4.75;100.00
4398;BME280;2213;49.720;7.296;2022-11-12T02:34:43;99745.59;;;4.74;100.00
4398;BME280;2213;49.720;7.296;2022-11-12T02:37:14;99748.28;;;4.72;100.00
4398;BME280;2213;49.720;7.296;2022-11-12T02:39:43;99747.28;;;4.75;100.00
4398;BME280;2213;49.720;7.296;2022-11-12T02:42:13;99742.31;;;4.72;100.00
4398;BME280;2213;49.720;7.296;2022-11-12T02:44:43;99738.28;;;4.68;100.00
4398;BME280;2213;49.720;7.296;2022-11-12T02:47:12;99740.97;;;4.66;100.00
4398;BME280;2213;49.720;7.296;2022-11-12T02:49:42;99736.13;;;4.62;100.00
4398;BME280;2213;49.720;7.296;2022-11-12T02:52:13;99733.63;;;4.60;100.00
4398;BME280;2213;49.720;7.296;2022-11-12T02:54:43;99734.56;;;4.59;100.00
4398;BME280;2213;49.720;7.296;2022-11-12T02:57:12;99741.72;;;4.55;100.00
4398;BME280;2213;49.720;7.296;2022-11-12T02:59:43;99739.47;;;4.51;100.00
4398;BME280;2213;49.720;7.296;2022-11-12T03:02:12;99738.63;;;4.50;100.00
4398;BME280;2213;49.720;7.296;2022-11-12T03:04:42;99736.97;;;4.49;100.00
4398;BME280;2213;49.720;7.296;2022-11-12T03:07:17;99735.31;;;4.48;100.00
4398;BME280;2213;49.720;7.296;2022-11-12T03:09:46;99726.81;;;4.46;100.00
4398;BME280;2213;49.720;7.296;2022-11-12T03:12:16;99725.38;;;4.42;100.00
4398;BME280;2213;49.720;7.296;2022-11-12T03:14:47;99730.34;;;4.45;100.00
4398;BME280;2213;49.720;7.296;2022-11-12T03:17:17;99720.19;;;4.42;100.00
4398;BME280;2213;49.720;7.296;2022-11-12T03:19:46;99711.72;;;4.40;100.00
4398;BME280;2213;49.720;7.296;2022-11-12T03:22:16;99704.88;;;4.39;100.00
4398;BME280;2213;49.720;7.296;2022-11-12T03:24:46;99710.88;;;4.40;100.00
4398;BME280;2213;49.720;7.296;2022-11-12T03:27:15;99716.06;;;4.40;100.00
4398;BME280;2213;49.720;7.296;2022-11-12T03:29:46;99703.22;;;4.38;100.00
4398;BME280;2213;49.720;7.296;2022-11-12T03:32:15;99708.19;;;4.41;100.00
4398;BME280;2213;49.720;7.296;2022-11-12T03:34:45;99705.94;;;4.37;100.00
4398;BME280;2213;49.720;7.296;2022-11-12T03:37:19;99710.28;;;4.36;100.00
4398;BME280;2213;49.720;7.296;2022-11-12T03:39:48;99708.13;;;4.30;100.00
4398;BME280;2213;49.720;7.296;2022-11-12T03:42:19;99705.53;;;4.30;100.00
4398;BME280;2213;49.720;7.296;2022-11-12T03:44:49;99709.97;;;4.28;100.00
4398;BME280;2213;49.720;7.296;2022-11-12T03:47:19;99709.88;;;4.30;100.00
4398;BME280;2213;49.720;7.296;2022-11-12T03:49:49;99705.31;;;4.33;100.00
4398;BME280;2213;49.720;7.296;2022-11-12T03:52:19;99700.13;;;4.33;100.00
4398;BME280;2213;49.720;7.296;2022-11-12T03:54:48;99703.66;;;4.32;100.00
4398;BME280;2213;49.720;7.296;2022-11-12T03:57:18;99704.69;;;4.30;100.00
4398;BME280;2213;49.720;7.296;2022-11-12T03:59:48;99693.72;;;4.26;100.00
4398;BME280;2213;49.720;7.296;2022-11-12T04:02:17;99696.09;;;4.29;100.00
4398;BME280;2213;49.720;7.296;2022-11-12T04:04:47;99695.78;;;4.21;100.00
4398;BME280;2213;49.720;7.296;2022-11-12T04:07:36;99697.66;;;4.19;100.00
4398;BME280;2213;49.720;7.296;2022-11-12T04:10:23;99694.56;;;4.14;100.00
4398;BME280;2213;49.720;7.296;2022-11-12T04:12:53;99696.44;;;4.12;100.00
4398;BME280;2213;49.720;7.296;2022-11-12T04:15:39;99690.44;;;4.12;100.00
4398;BME280;2213;49.720;7.296;2022-11-12T04:18:09;99702.44;;;4.13;100.00
4398;BME280;2213;49.720;7.296;2022-11-12T04:20:57;99703.59;;;4.09;100.00
4398;BME280;2213;49.720;7.296;2022-11-12T04:23:47;99697.03;;;4.03;100.00
4398;BME280;2213;49.720;7.296;2022-11-12T04:26:16;99703.06;;;4.03;100.00
4398;BME280;2213;49.720;7.296;2022-11-12T04:28:51;99705.78;;;4.02;100.00
4398;BME280;2213;49.720;7.296;2022-11-12T04:31:38;99700.69;;;4.00;100.00
4398;BME280;2213;49.720;7.296;2022-11-12T04:34:07;99704.94;;;4.01;100.00
4398;BME280;2213;49.720;7.296;2022-11-12T04:36:56;99705.78;;;4.02;100.00
4398;BME280;2213;49.720;7.296;2022-11-12T04:39:27;99708.44;;;4.00;100.00
4398;BME280;2213;49.720;7.296;2022-11-12T04:41:56;99704.31;;;3.98;100.00
4398;BME280;2213;49.720;7.296;2022-11-12T04:44:43;99705.97;;;3.99;100.00
4398;BME280;2213;49.720;7.296;2022-11-12T04:47:32;99698.09;;;4.00;100.00
4398;BME280;2213;49.720;7.296;2022-11-12T04:50:03;99697.25;;;4.00;100.00
4398;BME280;2213;49.720;7.296;2022-11-12T04:52:33;99701.19;;;3.93;100.00
4398;BME280;2213;49.720;7.296;2022-11-12T04:55:06;99701.53;;;3.88;100.00
4398;BME280;2213;49.720;7.296;2022-11-12T04:57:36;99701.00;;;3.83;100.00
4398;BME280;2213;49.720;7.296;2022-11-12T05:00:08;99700.78;;;3.86;100.00
4398;BME280;2213;49.720;7.296;2022-11-12T05:02:39;99692.72;;;3.91;100.00
4398;BME280;2213;49.720;7.296;2022-11-12T05:05:09;99699.97;;;3.86;100.00
4398;BME280;2213;49.720;7.296;2022-11-12T05:07:38;99693.88;;;3.74;100.00
4398;BME280;2213;49.720;7.296;2022-11-12T05:10:09;99694.38;;;3.67;100.00
4398;BME280;2213;49.720;7.296;2022-11-12T05:12:39;99695.63;;;3.74;100.00
4398;BME280;2213;49.720;7.296;2022-11-12T05:15:11;99693.03;;;3.74;100.00
4398;BME280;2213;49.720;7.296;2022-11-12T05:17:42;99692.63;;;3.67;100.00
4398;BME280;2213;49.720;7.296;2022-11-12T05:20:12;99693.75;;;3.63;100.00
4398;BME280;2213;49.720;7.296;2022-11-12T05:22:42;99694.47;;;3.65;100.00
4398;BME280;2213;49.720;7.296;2022-11-12T05:25:32;99687.97;;;3.60;100.00
4398;BME280;2213;49.720;7.296;2022-11-12T05:28:02;99687.13;;;3.59;100.00
4398;BME280;2213;49.720;7.296;2022-11-12T05:30:34;99683.41;;;3.50;100.00
4398;BME280;2213;49.720;7.296;2022-11-12T05:33:04;99675.31;;;3.42;100.00
4398;BME280;2213;49.720;7.296;2022-11-12T05:35:33;99681.97;;;3.46;100.00
4398;BME280;2213;49.720;7.296;2022-11-12T05:38:03;99673.88;;;3.38;100.00
4398;BME280;2213;49.720;7.296;2022-11-12T05:40:35;99679.44;;;3.32;100.00
4398;BME280;2213;49.720;7.296;2022-11-12T05:43:04;99685.25;;;3.36;100.00
4398;BME280;2213;49.720;7.296;2022-11-12T05:45:33;99680.72;;;3.39;100.00
4398;BME280;2213;49.720;7.296;2022-11-12T05:48:03;99681.34;;;3.43;100.00
4398;BME280;2213;49.720;7.296;2022-11-12T05:50:32;99683.91;;;3.43;100.00
4398;BME280;2213;49.720;7.296;2022-11-12T05:53:22;99692.47;;;3.31;100.00
4398;BME280;2213;49.720;7.296;2022-11-12T05:55:53;99695.38;;;3.26;100.00
4398;BME280;2213;49.720;7.296;2022-11-12T05:58:24;99700.09;;;3.20;100.00
4398;BME280;2213;49.720;7.296;2022-11-12T06:00:54;99691.53;;;3.19;100.00
4398;BME280;2213;49.720;7.296;2022-11-12T06:03:24;99695.25;;;3.15;100.00
4398;BME280;2213;49.720;7.296;2022-11-12T06:05:53;99692.84;;;3.12;100.00
4398;BME280;2213;49.720;7.296;2022-11-12T06:08:22;99701.13;;;3.17;100.00
4398;BME280;2213;49.720;7.296;2022-11-12T06:10:54;99691.72;;;3.16;100.00
4398;BME280;2213;49.720;7.296;2022-11-12T06:13:24;99693.16;;;3.20;100.00
4398;BME280;2213;49.720;7.296;2022-11-12T06:15:55;99700.72;;;3.23;100.00
4398;BME280;2213;49.720;7.296;2022-11-12T06:18:24;99702.19;;;3.27;100.00
4398;BME280;2213;49.720;7.296;2022-11-12T06:21:00;99702.59;;;3.21;100.00
4398;BME280;2213;49.720;7.296;2022-11-12T06:23:53;99711.06;;;3.23;100.00
4398;BME280;2213;49.720;7.296;2022-11-12T06:26:28;99715.09;;;3.27;100.00
4398;BME280;2213;49.720;7.296;2022-11-12T06:28:57;99719.56;;;3.25;100.00
4398;BME280;2213;49.720;7.296;2022-11-12T06:31:26;99722.44;;;3.21;100.00
4398;BME280;2213;49.720;7.296;2022-11-12T06:33:56;99723.66;;;3.15;100.00
4398;BME280;2213;49.720;7.296;2022-11-12T06:36:25;99725.00;;;3.08;100.00
4398;BME280;2213;49.720;7.296;2022-11-12T06:38:55;99730.44;;;3.03;100.00
4398;BME280;2213;49.720;7.296;2022-11-12T06:41:26;99729.81;;;3.00;100.00
4398;BME280;2213;49.720;7.296;2022-11-12T06:43:57;99740.50;;;3.08;100.00
4398;BME280;2213;49.720;7.296;2022-11-12T06:46:27;99747.38;;;2.95;100.00
4398;BME280;2213;49.720;7.296;2022-11-12T06:48:58;99753.25;;;2.97;100.00
4398;BME280;2213;49.720;7.296;2022-11-12T06:51:27;99763.03;;;2.92;100.00
4398;BME280;2213;49.720;7.296;2022-11-12T06:53:57;99765.47;;;2.95;100.00
4398;BME280;2213;49.720;7.296;2022-11-12T06:56:28;99766.69;;;3.02;100.00
4398;BME280;2213;49.720;7.296;2022-11-12T06:58:58;99769.19;;;3.03;100.00
4398;BME280;2213;49.720;7.296;2022-11-12T07:01:28;99760.22;;;3.09;100.00
4398;BME280;2213;49.720;7.296;2022-11-12T07:03:57;99765.09;;;3.14;100.00
4398;BME280;2213;49.720;7.296;2022-11-12T07:06:26;99766.84;;;3.13;100.00
4398;BME280;2213;49.720;7.296;2022-11-12T07:08:56;99770.81;;;3.19;100.00
4398;BME280;2213;49.720;7.296;2022-11-12T07:11:28;99771.25;;;3.25;100.00
4398;BME280;2213;49.720;7.296;2022-11-12T07:13:58;99776.31;;;3.27;100.00
4398;BME280;2213;49.720;7.296;2022-11-12T07:16:27;99786.34;;;3.31;100.00
4398;BME280;2213;49.720;7.296;2022-11-12T07:18:57;99781.09;;;3.33;100.00
4398;BME280;2213;49.720;7.296;2022-11-12T07:21:27;99782.75;;;3.34;100.00
4398;BME280;2213;49.720;7.296;2022-11-12T07:23:57;99781.91;;;3.33;100.00
4398;BME280;2213;49.720;7.296;2022-11-12T07:26:28;99786.78;;;3.38;100.00
4398;BME280;2213;49.720;7.296;2022-11-12T07:28:57;99794.47;;;3.39;100.00
4398;BME280;2213;49.720;7.296;2022-11-12T07:31:27;99793.34;;;3.43;100.00
4398;BME280;2213;49.720;7.296;2022-11-12T07:33:56;99782.88;;;3.45;100.00
4398;BME280;2213;49.720;7.296;2022-11-12T07:36:25;99778.47;;;3.47;100.00
4398;BME280;2213;49.720;7.296;2022-11-12T07:38:54;99782.06;;;3.44;100.00
4398;BME280;2213;49.720;7.296;2022-11-12T07:41:24;99784.44;;;3.47;100.00
4398;BME280;2213;49.720;7.296;2022-11-12T07:43:55;99787.41;;;3.41;100.00
4398;BME280;2213;49.720;7.296;2022-11-12T07:46:26;99787.41;;;3.41;100.00
4398;BME280;2213;49.720;7.296;2022-11-12T07:48:55;99787.22;;;3.44;100.00
4398;BME280;2213;49.720;7.296;2022-11-12T07:51:26;99795.09;;;3.43;100.00
4398;BME280;2213;49.720;7.296;2022-11-12T07:53:57;99786.22;;;3.47;100.00
4398;BME280;2213;49.720;7.296;2022-11-12T07:56:27;99786.00;;;3.50;100.00
4398;BME280;2213;49.720;7.296;2022-11-12T07:58:58;99793.38;;;3.56;100.00
4398;BME280;2213;49.720;7.296;2022-11-12T08:01:30;99791.41;;;3.60;100.00
4398;BME280;2213;49.720;7.296;2022-11-12T08:04:02;99785.63;;;3.69;100.00
4398;BME280;2213;49.720;7.296;2022-11-12T08:06:32;99786.03;;;3.75;100.00
4398;BME280;2213;49.720;7.296;2022-11-12T08:09:06;99787.28;;;3.82;100.00
4398;BME280;2213;49.720;7.296;2022-11-12T08:11:35;99780.91;;;3.88;100.00
4398;BME280;2213;49.720;7.296;2022-11-12T08:14:07;99783.38;;;3.89;100.00
4398;BME280;2213;49.720;7.296;2022-11-12T08:16:35;99778.75;;;3.94;100.00
4398;BME280;2213;49.720;7.296;2022-11-12T08:19:04;99781.94;;;3.98;100.00
4398;BME280;2213;49.720;7.296;2022-11-12T08:21:35;99775.53;;;4.03;100.00
4398;BME280;2213;49.720;7.296;2022-11-12T08:24:04;99774.50;;;4.06;100.00
4398;BME280;2213;49.720;7.296;2022-11-12T08:26:36;99773.56;;;4.07;100.00
4398;BME280;2213;49.720;7.296;2022-11-12T08:29:07;99776.78;;;4.11;100.00
4398;BME280;2213;49.720;7.296;2022-11-12T08:31:36;99771.28;;;4.15;100.00
4398;BME280;2213;49.720;7.296;2022-11-12T08:34:07;99777.38;;;4.14;100.00
4398;BME280;2213;49.720;7.296;2022-11-12T08:36:49;99768.69;;;4.15;100.00
4398;BME280;2213;49.720;7.296;2022-11-12T08:39:19;99779.16;;;4.14;100.00
4398;BME280;2213;49.720;7.296;2022-11-12T08:41:50;99771.28;;;4.15;100.00
4398;BME280;2213;49.720;7.296;2022-11-12T08:44:22;99774.72;;;4.16;100.00
4398;BME280;2213;49.720;7.296;2022-11-12T08:46:51;99782.34;;;4.17;100.00
4398;BME280;2213;49.720;7.296;2022-11-12T08:49:20;99784.63;;;4.22;100.00
4398;BME280;2213;49.720;7.296;2022-11-12T08:51:50;99780.19;;;4.24;100.00
4398;BME280;2213;49.720;7.296;2022-11-12T08:54:20;99774.91;;;4.25;100.00
4398;BME280;2213;49.720;7.296;2022-11-12T08:56:50;99778.81;;;4.31;100.00
4398;BME280;2213;49.720;7.296;2022-11-12T08:59:21;99776.16;;;4.32;100.00
4398;BME280;2213;49.720;7.296;2022-11-12T09:01:49;99769.81;;;4.36;100.00
4398;BME280;2213;49.720;7.296;2022-11-12T09:04:19;99775.72;;;4.38;100.00
4398;BME280;2213;49.720;7.296;2022-11-12T09:06:47;99777.16;;;4.42;100.00
4398;BME280;2213;49.720;7.296;2022-11-12T09:09:21;99765.75;;;4.45;100.00
4398;BME280;2213;49.720;7.296;2022-11-12T09:11:50;99767.34;;;4.47;100.00
4398;BME280;2213;49.720;7.296;2022-11-12T09:14:21;99759.22;;;4.52;100.00
4398;BME280;2213;49.720;7.296;2022-11-12T09:16:51;99759.13;;;4.53;100.00
4398;BME280;2213;49.720;7.296;2022-11-12T09:19:20;99761.28;;;4.60;100.00
4398;BME280;2213;49.720;7.296;2022-11-12T09:21:50;99762.94;;;4.61;100.00
4398;BME280;2213;49.720;7.296;2022-11-12T09:24:18;99756.50;;;4.66;100.00
4398;BME280;2213;49.720;7.296;2022-11-12T09:26:51;99762.81;;;4.75;100.00
4398;BME280;2213;49.720;7.296;2022-11-12T09:29:21;99761.66;;;4.79;100.00
4398;BME280;2213;49.720;7.296;2022-11-12T09:31:51;99762.28;;;4.82;100.00
4398;BME280;2213;49.720;7.296;2022-11-12T09:34:21;99760.31;;;4.86;100.00
4398;BME280;2213;49.720;7.296;2022-11-12T09:36:50;99760.09;;;4.89;100.00
4398;BME280;2213;49.720;7.296;2022-11-12T09:39:19;99753.84;;;4.91;100.00
4398;BME280;2213;49.720;7.296;2022-11-12T09:41:49;99751.03;;;4.94;100.00
4398;BME280;2213;49.720;7.296;2022-11-12T09:44:20;99755.06;;;4.98;100.00
4398;BME280;2213;49.720;7.296;2022-11-12T09:46:58;99754.75;;;5.03;100.00
4398;BME280;2213;49.720;7.296;2022-11-12T09:49:32;99755.44;;;5.05;100.00
4398;BME280;2213;49.720;7.296;2022-11-12T09:52:13;99748.19;;;5.10;100.00
4398;BME280;2213;49.720;7.296;2022-11-12T09:54:49;99752.09;;;5.16;100.00
4398;BME280;2213;49.720;7.296;2022-11-12T09:57:21;99744.91;;;5.19;100.00
4398;BME280;2213;49.720;7.296;2022-11-12T09:59:51;99740.56;;;5.20;100.00
4398;BME280;2213;49.720;7.296;2022-11-12T10:02:31;99735.75;;;5.26;100.00
4398;BME280;2213;49.720;7.296;2022-11-12T10:05:22;99729.41;;;5.30;100.00
4398;BME280;2213;49.720;7.296;2022-11-12T10:08:15;99728.94;;;5.36;100.00
4398;BME280;2213;49.720;7.296;2022-11-12T10:11:00;99728.72;;;5.39;100.00
4398;BME280;2213;49.720;7.296;2022-11-12T10:13:46;99725.19;;;5.40;100.00
4398;BME280;2213;49.720;7.296;2022-11-12T10:16:47;99720.47;;;5.45;100.00
4398;BME280;2213;49.720;7.296;2022-11-12T10:19:41;99718.72;;;5.46;100.00
4398;BME280;2213;49.720;7.296;2022-11-12T10:22:36;99720.97;;;5.50;100.00
4398;BME280;2213;49.720;7.296;2022-11-12T10:25:15;99729.22;;;5.55;100.00
4398;BME280;2213;49.720;7.296;2022-11-12T10:27:45;99727.13;;;5.61;100.00
4398;BME280;2213;49.720;7.296;2022-11-12T10:30:17;99724.22;;;5.65;100.00
4398;BME280;2213;49.720;7.296;2022-11-12T10:32:52;99721.38;;;5.68;100.00
4398;BME280;2213;49.720;7.296;2022-11-12T10:35:23;99726.44;;;5.70;100.00
4398;BME280;2213;49.720;7.296;2022-11-12T10:37:59;99732.22;;;5.73;100.00
4398;BME280;2213;49.720;7.296;2022-11-12T10:40:34;99724.22;;;5.76;100.00
4398;BME280;2213;49.720;7.296;2022-11-12T10:43:19;99717.03;;;5.80;100.00
4398;BME280;2213;49.720;7.296;2022-11-12T10:45:50;99728.00;;;5.83;100.00
4398;BME280;2213;49.720;7.296;2022-11-12T10:48:26;99712.94;;;5.88;100.00
4398;BME280;2213;49.720;7.296;2022-11-12T10:51:01;99711.78;;;5.92;100.00
4398;BME280;2213;49.720;7.296;2022-11-12T10:53:35;99708.03;;;5.96;100.00
4398;BME280;2213;49.720;7.296;2022-11-12T10:56:24;99699.84;;;6.01;100.00
4398;BME280;2213;49.720;7.296;2022-11-12T10:59:15;99701.03;;;6.08;100.00
4398;BME280;2213;49.720;7.296;2022-11-12T11:01:53;99707.66;;;6.12;100.00
4398;BME280;2213;49.720;7.296;2022-11-12T11:04:32;99710.75;;;6.17;100.00
4398;BME280;2213;49.720;7.296;2022-11-12T11:07:05;99706.84;;;6.23;100.00
4398;BME280;2213;49.720;7.296;2022-11-12T11:09:35;99701.28;;;6.27;100.00
4398;BME280;2213;49.720;7.296;2022-11-12T11:12:22;99701.75;;;6.32;100.00
4398;BME280;2213;49.720;7.296;2022-11-12T11:15:06;99692.31;;;6.31;100.00
4398;BME280;2213;49.720;7.296;2022-11-12T11:17:37;99692.06;;;6.34;100.00
4398;BME280;2213;49.720;7.296;2022-11-12T11:20:21;99688.06;;;6.41;100.00
4398;BME280;2213;49.720;7.296;2022-11-12T11:22:57;99674.94;;;6.43;100.00
4398;BME280;2213;49.720;7.296;2022-11-12T11:25:31;99675.66;;;6.45;100.00
4398;BME280;2213;49.720;7.296;2022-11-12T11:28:14;99673.50;;;6.50;100.00
4398;BME280;2213;49.720;7.296;2022-11-12T11:30:57;99676.44;;;6.56;100.00
4398;BME280;2213;49.720;7.296;2022-11-12T11:33:43;99672.41;;;6.64;100.00
4398;BME280;2213;49.720;7.296;2022-11-12T11:36:27;99662.72;;;6.66;100.00
4398;BME280;2213;49.720;7.296;2022-11-12T11:39:11;99659.75;;;6.70;100.00
4398;BME280;2213;49.720;7.296;2022-11-12T11:42:01;99645.69;;;6.73;100.00
4398;BME280;2213;49.720;7.296;2022-11-12T11:44:43;99649.56;;;6.78;100.00
4398;BME280;2213;49.720;7.296;2022-11-12T11:47:29;99648.22;;;6.84;100.00
4398;BME280;2213;49.720;7.296;2022-11-12T11:50:28;99648.00;;;6.87;100.00
4398;BME280;2213;49.720;7.296;2022-11-12T11:53:16;99651.31;;;6.89;100.00
4398;BME280;2213;49.720;7.296;2022-11-12T11:55:55;99647.75;;;6.90;100.00
4398;BME280;2213;49.720;7.296;2022-11-12T11:59:09;99644.78;;;6.94;100.00
4398;BME280;2213;49.720;7.296;2022-11-12T12:04:50;99636.59;;;6.99;100.00
4398;BME280;2213;49.720;7.296;2022-11-12T12:07:40;99634.72;;;7.01;100.00
4398;BME280;2213;49.720;7.296;2022-11-12T12:10:23;99628.28;;;7.05;100.00
4398;BME280;2213;49.720;7.296;2022-11-12T12:13:25;99622.97;;;7.06;100.00
4398;BME280;2213;49.720;7.296;2022-11-12T12:16:34;99629.44;;;7.12;100.00
4398;BME280;2213;49.720;7.296;2022-11-12T12:19:21;99631.78;;;7.15;100.00
4398;BME280;2213;49.720;7.296;2022-11-12T12:21:52;99632.38;;;7.19;100.00
4398;BME280;2213;49.720;7.296;2022-11-12T12:24:31;99628.56;;;7.23;100.00
4398;BME280;2213;49.720;7.296;2022-11-12T12:27:13;99628.19;;;7.27;100.00
4398;BME280;2213;49.720;7.296;2022-11-12T12:29:48;99625.34;;;7.30;100.00
4398;BME280;2213;49.720;7.296;2022-11-12T12:32:25;99626.72;;;7.34;100.00
4398;BME280;2213;49.720;7.296;2022-11-12T12:35:12;99617.72;;;7.38;100.00
4398;BME280;2213;49.720;7.296;2022-11-12T12:37:54;99615.53;;;7.43;100.00
4398;BME280;2213;49.720;7.296;2022-11-12T12:40:32;99616.00;;;7.48;100.00
4398;BME280;2213;49.720;7.296;2022-11-12T12:43:12;99614.06;;;7.50;100.00
4398;BME280;2213;49.720;7.296;2022-11-12T12:45:46;99613.69;;;7.55;100.00
4398;BME280;2213;49.720;7.296;2022-11-12T12:48:20;99603.03;;;7.58;100.00
4398;BME280;2213;49.720;7.296;2022-11-12T12:50:52;99601.94;;;7.60;100.00
4398;BME280;2213;49.720;7.296;2022-11-12T12:53:33;99600.59;;;7.66;100.00
4398;BME280;2213;49.720;7.296;2022-11-12T12:56:05;99595.81;;;7.71;100.00
4398;BME280;2213;49.720;7.296;2022-11-12T12:58:43;99598.88;;;7.76;100.00
4398;BME280;2213;49.720;7.296;2022-11-12T13:01:29;99593.28;;;7.81;100.00
4398;BME280;2213;49.720;7.296;2022-11-12T13:04:01;99594.63;;;7.85;100.00
4398;BME280;2213;49.720;7.296;2022-11-12T13:06:34;99599.34;;;7.91;100.00
4398;BME280;2213;49.720;7.296;2022-11-12T13:09:21;99595.50;;;7.95;100.00
4398;BME280;2213;49.720;7.296;2022-11-12T13:11:54;99592.38;;;8.01;100.00
4398;BME280;2213;49.720;7.296;2022-11-12T13:15:19;99598.84;;;8.06;100.00
4398;BME280;2213;49.720;7.296;2022-11-12T13:18:08;99593.91;;;8.13;100.00
4398;BME280;2213;49.720;7.296;2022-11-12T13:21:08;99592.56;;;8.19;100.00
4398;BME280;2213;49.720;7.296;2022-11-12T13:23:46;99586.94;;;8.23;100.00
4398;BME280;2213;49.720;7.296;2022-11-12T13:26:54;99581.25;;;8.29;100.00
4398;BME280;2213;49.720;7.296;2022-11-12T13:29:41;99579.03;;;8.34;100.00
4398;BME280;2213;49.720;7.296;2022-11-12T13:32:36;99575.22;;;8.38;100.00
4398;BME280;2213;49.720;7.296;2022-11-12T13:35:27;99576.72;;;8.41;100.00
4398;BME280;2213;49.720;7.296;2022-11-12T13:38:01;99571.22;;;8.44;100.00
4398;BME280;2213;49.720;7.296;2022-11-12T13:40:42;99573.44;;;8.48;100.00
4398;BME280;2213;49.720;7.296;2022-11-12T13:43:32;99577.44;;;8.52;100.00
4398;BME280;2213;49.720;7.296;2022-11-12T13:46:26;99576.19;;;8.56;100.00
4398;BME280;2213;49.720;7.296;2022-11-12T13:49:03;99578.53;;;8.59;100.00
4398;BME280;2213;49.720;7.296;2022-11-12T13:51:40;99581.69;;;8.63;100.00
4398;BME280;2213;49.720;7.296;2022-11-12T13:54:33;99572.75;;;8.66;100.00
4398;BME280;2213;49.720;7.296;2022-11-12T13:57:28;99580.31;;;8.69;100.00
4398;BME280;2213;49.720;7.296;2022-11-12T14:00:19;99585.25;;;8.72;100.00
4398;BME280;2213;49.720;7.296;2022-11-12T14:02:54;99588.41;;;8.75;100.00
4398;BME280;2213;49.720;7.296;2022-11-12T14:05:29;99580.28;;;8.78;100.00